Time;durP1;ratioP1;P1;durP2;ratioP2;P2;SDS_P1;SDS_P2;PMS_P1;PMS_P2;Temp;Humidity;BMP_temperature;BMP_pressure;BME280_temperature;BME280_humidity;BME280_pressure;Samples;Min_cycle;Max_cycle;Signal;HPM_P1;HPM_P2
2024/01/22 00:02:24;;;;;;;;;;;17.30;56.30;;;;;;5074273;27;42924;-76
2024/01/22 00:04:50;;;;;;;;;;;17.40;56.20;;;;;;5076141;28;43650;-77
2024/01/22 00:07:15;;;;;;;;;;;17.40;56.40;;;;;;5067457;28;42893;-76
2024/01/22 00:09:40;;;;;;;;;;;17.30;56.10;;;;;;5065101;28;42868;-76
2024/01/22 00:12:06;;;;;;;;;;;17.30;56.10;;;;;;5065044;28;42905;-78
2024/01/22 00:14:32;;;;;;;;;;;17.30;56.20;;;;;;5050133;28;43105;-79
2024/01/22 00:16:57;;;;;;;;;;;17.30;56.10;;;;;;5058598;28;44138;-77
2024/01/22 00:19:22;;;;;;;;;;;17.30;56.10;;;;;;5064019;28;43976;-78
2024/01/22 00:21:48;;;;;;;;;;;17.30;56.10;;;;;;5064245;28;42992;-78
2024/01/22 00:24:13;;;;;;;;;;;17.30;56.00;;;;;;5063556;28;42993;-80
2024/01/22 00:26:39;;;;;;;;;;;17.30;56.10;;;;;;5062705;28;42960;-76
2024/01/22 00:29:04;;;;;;;;;;;17.30;56.10;;;;;;5064255;28;42930;-79
2024/01/22 00:31:30;;;;;;;;;;;17.30;56.00;;;;;;5064316;28;43092;-77
2024/01/22 00:33:55;;;;;;;;;;;17.30;56.10;;;;;;5064717;28;42966;-78
2024/01/22 00:36:21;;;;;;;;;;;17.30;55.90;;;;;;5063689;28;43056;-79
2024/01/22 00:38:46;;;;;;;;;;;17.30;56.00;;;;;;5064662;28;43638;-79
2024/01/22 00:41:12;;;;;;;;;;;17.30;56.00;;;;;;5064740;28;42944;-77
2024/01/22 00:43:38;;;;;;;;;;;17.30;55.90;;;;;;5063173;28;43499;-76
2024/01/22 00:46:03;;;;;;;;;;;17.20;55.90;;;;;;5064686;28;42829;-76
2024/01/22 00:48:29;;;;;;;;;;;17.20;55.90;;;;;;5063988;28;42780;-79
2024/01/22 00:50:54;;;;;;;;;;;17.30;55.90;;;;;;5064377;28;42966;-79
2024/01/22 00:53:20;;;;;;;;;;;17.20;55.80;;;;;;5064230;28;43111;-79
2024/01/22 00:55:45;;;;;;;;;;;17.20;55.70;;;;;;5063978;28;43158;-76
2024/01/22 00:58:11;;;;;;;;;;;17.20;56.10;;;;;;5064065;28;42762;-76
2024/01/22 01:00:36;;;;;;;;;;;17.20;55.60;;;;;;5065523;28;42903;-77
2024/01/22 01:03:02;;;;;;;;;;;17.20;55.50;;;;;;5067681;28;43177;-77
2024/01/22 01:05:27;;;;;;;;;;;17.20;55.40;;;;;;5068148;28;43075;-79
2024/01/22 01:07:53;;;;;;;;;;;17.20;55.30;;;;;;5067547;28;43188;-79
2024/01/22 01:10:18;;;;;;;;;;;17.20;55.20;;;;;;5066995;28;43017;-78
2024/01/22 01:12:44;;;;;;;;;;;17.20;55.20;;;;;;5067168;28;43846;-80
2024/01/22 01:15:10;;;;;;;;;;;17.30;55.10;;;;;;5067991;28;43232;-79
2024/01/22 01:17:35;;;;;;;;;;;17.20;55.10;;;;;;5067028;28;43024;-78
2024/01/22 01:20:03;;;;;;;;;;;17.20;55.00;;;;;;5066720;28;43104;-79
2024/01/22 01:22:29;;;;;;;;;;;17.20;55.00;;;;;;5067521;28;42799;-78
2024/01/22 01:24:55;;;;;;;;;;;17.20;55.00;;;;;;5067875;28;43053;-77
2024/01/22 01:27:20;;;;;;;;;;;17.20;54.40;;;;;;5072225;28;42990;-78
2024/01/22 01:29:46;;;;;;;;;;;17.20;54.80;;;;;;5069311;28;42960;-76
2024/01/22 01:32:12;;;;;;;;;;;17.20;54.80;;;;;;5067996;28;43659;-80
2024/01/22 01:34:37;;;;;;;;;;;17.20;54.80;;;;;;5067229;28;43559;-79
2024/01/22 01:37:03;;;;;;;;;;;17.20;54.80;;;;;;5065581;28;43924;-76
2024/01/22 01:39:29;;;;;;;;;;;17.10;54.70;;;;;;5066978;28;42959;-76
2024/01/22 01:41:54;;;;;;;;;;;17.20;54.60;;;;;;5067465;28;42950;-76
2024/01/22 01:44:20;;;;;;;;;;;17.20;54.60;;;;;;5065892;28;43055;-79
2024/01/22 01:46:45;;;;;;;;;;;17.10;54.00;;;;;;5066460;28;42974;-77
2024/01/22 01:49:11;;;;;;;;;;;17.20;54.50;;;;;;5067124;28;43013;-76
2024/01/22 01:51:37;;;;;;;;;;;17.20;54.60;;;;;;5062597;28;43539;-77
2024/01/22 01:54:04;;;;;;;;;;;17.20;54.50;;;;;;5065599;28;42958;-79
2024/01/22 01:56:30;;;;;;;;;;;17.10;54.40;;;;;;5067115;28;43078;-78
2024/01/22 01:58:55;;;;;;;;;;;17.10;54.40;;;;;;5067464;28;43808;-79
2024/01/22 02:01:21;;;;;;;;;;;17.20;54.40;;;;;;5067882;28;43241;-79
2024/01/22 02:03:47;;;;;;;;;;;17.20;54.40;;;;;;5065799;28;43544;-78
2024/01/22 02:06:12;;;;;;;;;;;17.20;54.40;;;;;;5079228;28;43375;-78
2024/01/22 02:08:38;;;;;;;;;;;17.20;54.20;;;;;;5082883;27;42946;-76
2024/01/22 02:11:04;;;;;;;;;;;17.20;54.20;;;;;;5066470;28;43375;-76
2024/01/22 02:13:29;;;;;;;;;;;17.10;54.20;;;;;;5066958;28;43035;-76
2024/01/22 02:15:55;;;;;;;;;;;17.10;54.20;;;;;;5065079;28;44391;-79
2024/01/22 02:18:20;;;;;;;;;;;17.10;54.20;;;;;;5066208;28;42889;-76
2024/01/22 02:20:46;;;;;;;;;;;17.10;54.10;;;;;;5066008;28;43539;-77
2024/01/22 02:23:11;;;;;;;;;;;17.10;54.20;;;;;;5066627;28;43042;-76
2024/01/22 02:25:37;;;;;;;;;;;17.10;54.10;;;;;;5066568;28;43532;-79
2024/01/22 02:28:02;;;;;;;;;;;17.10;54.60;;;;;;5066767;28;42966;-76
2024/01/22 02:30:28;;;;;;;;;;;17.10;54.10;;;;;;5066696;28;43484;-77
2024/01/22 02:32:53;;;;;;;;;;;17.10;54.10;;;;;;5066377;28;43079;-78
2024/01/22 02:35:20;;;;;;;;;;;18.80;54.40;;;;;;5066281;28;42919;-79
2024/01/22 02:37:46;;;;;;;;;;;17.10;54.10;;;;;;5065173;28;43014;-80
2024/01/22 02:40:11;;;;;;;;;;;17.10;54.00;;;;;;5066009;28;43396;-79
2024/01/22 02:42:37;;;;;;;;;;;17.10;54.00;;;;;;5066383;28;43058;-76
2024/01/22 02:45:02;;;;;;;;;;;17.10;54.00;;;;;;5066462;28;42986;-80
2024/01/22 02:47:28;;;;;;;;;;;17.10;54.00;;;;;;5065239;28;42911;-78
2024/01/22 02:49:53;;;;;;;;;;;17.10;54.00;;;;;;5066734;28;42925;-77
2024/01/22 02:52:19;;;;;;;;;;;17.10;54.10;;;;;;5065709;28;43280;-79
2024/01/22 02:54:44;;;;;;;;;;;17.10;54.00;;;;;;5064671;28;42931;-76
2024/01/22 02:57:10;;;;;;;;;;;17.10;53.90;;;;;;5066015;28;43076;-79
2024/01/22 02:59:36;;;;;;;;;;;17.10;54.00;;;;;;5066550;28;42975;-78
2024/01/22 03:02:02;;;;;;;;;;;17.10;54.00;;;;;;5065893;28;42840;-80
2024/01/22 03:04:28;;;;;;;;;;;17.10;54.00;;;;;;5065147;28;43327;-81
2024/01/22 03:06:54;;;;;;;;;;;17.10;54.00;;;;;;5063516;28;42928;-78
2024/01/22 03:09:19;;;;;;;;;;;17.10;54.00;;;;;;5063966;28;42857;-78
2024/01/22 03:11:45;;;;;;;;;;;17.10;54.00;;;;;;5065503;28;43040;-79
2024/01/22 03:14:11;;;;;;;;;;;17.10;54.00;;;;;;5065206;28;42859;-78
2024/01/22 03:16:36;;;;;;;;;;;17.10;54.00;;;;;;5065902;28;42848;-75
2024/01/22 03:19:02;;;;;;;;;;;17.10;54.00;;;;;;5064886;28;43589;-78
2024/01/22 03:21:27;;;;;;;;;;;17.10;54.00;;;;;;5065742;28;43196;-78
2024/01/22 03:23:53;;;;;;;;;;;17.10;54.00;;;;;;5062933;28;43437;-76
2024/01/22 03:26:20;;;;;;;;;;;17.10;53.50;;;;;;5065037;28;42839;-79
2024/01/22 03:28:47;;;;;;;;;;;17.10;54.00;;;;;;5066291;28;42902;-77
2024/01/22 03:31:28;;;;;;;;;;;17.00;53.90;;;;;;5065812;28;42955;-78
2024/01/22 03:33:54;;;;;;;;;;;17.10;54.00;;;;;;5065244;28;42991;-77
2024/01/22 03:36:20;;;;;;;;;;;17.10;53.90;;;;;;5065349;28;42834;-80
2024/01/22 03:38:46;;;;;;;;;;;17.10;54.00;;;;;;5065183;28;43540;-80
2024/01/22 03:41:11;;;;;;;;;;;17.10;54.00;;;;;;5066007;28;43029;-79
2024/01/22 03:43:37;;;;;;;;;;;17.10;53.90;;;;;;5069779;28;43298;-79
2024/01/22 03:46:02;;;;;;;;;;;17.10;53.90;;;;;;5072207;28;42942;-80
2024/01/22 03:48:28;;;;;;;;;;;17.10;53.90;;;;;;5065102;28;43631;-80
2024/01/22 03:50:54;;;;;;;;;;;17.00;53.40;;;;;;5065049;28;42949;-80
2024/01/22 03:53:22;;;;;;;;;;;17.10;53.90;;;;;;5065859;28;44011;-78
2024/01/22 03:55:48;;;;;;;;;;;17.10;53.80;;;;;;5065504;28;42950;-76
2024/01/22 03:58:13;;;;;;;;;;;17.00;53.90;;;;;;5063286;28;44907;-76
2024/01/22 04:00:39;;;;;;;;;;;17.00;53.80;;;;;;5063346;28;43001;-80
2024/01/22 04:03:04;;;;;;;;;;;17.10;53.80;;;;;;5063795;28;43295;-76
2024/01/22 04:05:30;;;;;;;;;;;17.00;53.80;;;;;;5064051;28;43108;-80
2024/01/22 04:07:56;;;;;;;;;;;17.00;53.80;;;;;;5063042;28;43068;-79
2024/01/22 04:10:22;;;;;;;;;;;17.10;53.80;;;;;;5064852;28;43059;-78
2024/01/22 04:12:47;;;;;;;;;;;17.10;53.80;;;;;;5065075;28;43724;-79
2024/01/22 04:15:13;;;;;;;;;;;17.00;53.70;;;;;;5064818;28;42932;-79
2024/01/22 04:17:38;;;;;;;;;;;17.00;53.80;;;;;;5063025;28;43097;-78
2024/01/22 04:20:04;;;;;;;;;;;17.00;53.70;;;;;;5064179;28;42969;-79
2024/01/22 04:22:30;;;;;;;;;;;17.00;53.70;;;;;;5064414;28;42921;-79
2024/01/22 04:24:55;;;;;;;;;;;17.00;53.70;;;;;;5064960;28;43091;-80
2024/01/22 04:27:21;;;;;;;;;;;17.10;53.80;;;;;;5063893;28;42896;-79
2024/01/22 04:29:46;;;;;;;;;;;17.00;53.70;;;;;;5064026;28;42925;-76
2024/01/22 04:32:12;;;;;;;;;;;17.10;53.70;;;;;;5064052;28;43712;-80
2024/01/22 04:34:39;;;;;;;;;;;17.00;53.60;;;;;;5063660;28;43098;-79
2024/01/22 04:37:05;;;;;;;;;;;17.00;53.60;;;;;;5061111;28;43540;-78
2024/01/22 04:39:31;;;;;;;;;;;17.00;53.60;;;;;;5065282;28;43013;-80
2024/01/22 04:41:56;;;;;;;;;;;17.00;53.70;;;;;;5065065;28;42871;-79
2024/01/22 04:44:21;;;;;;;;;;;17.00;53.60;;;;;;5064253;28;43309;-80
2024/01/22 04:46:47;;;;;;;;;;;17.10;53.60;;;;;;5063819;28;42983;-78
2024/01/22 04:49:13;;;;;;;;;;;17.00;53.60;;;;;;5064158;28;42925;-77
2024/01/22 04:51:40;;;;;;;;;;;17.00;53.60;;;;;;5060936;28;44199;-80
2024/01/22 04:54:06;;;;;;;;;;;17.00;53.60;;;;;;5061376;28;42931;-78
2024/01/22 04:56:31;;;;;;;;;;;17.00;53.70;;;;;;5064818;28;44184;-80
2024/01/22 04:58:57;;;;;;;;;;;17.00;53.50;;;;;;5077068;28;42897;-78
2024/01/22 05:01:22;;;;;;;;;;;17.00;53.50;;;;;;5082221;27;43089;-79
2024/01/22 05:03:48;;;;;;;;;;;17.00;53.50;;;;;;5064142;28;42882;-79
2024/01/22 05:06:13;;;;;;;;;;;17.00;53.60;;;;;;5062833;28;43762;-76
2024/01/22 05:08:40;;;;;;;;;;;17.00;53.10;;;;;;5072297;28;42973;-80
2024/01/22 05:11:05;;;;;;;;;;;17.00;53.50;;;;;;5074255;27;42977;-76
2024/01/22 05:13:31;;;;;;;;;;;17.00;53.60;;;;;;5071016;28;43224;-80
2024/01/22 05:15:56;;;;;;;;;;;17.00;53.70;;;;;;5060257;28;43478;-78
2024/01/22 05:18:22;;;;;;;;;;;17.00;53.60;;;;;;5073884;28;43052;-76
2024/01/22 05:20:48;;;;;;;;;;;17.00;53.60;;;;;;5077910;28;43454;-76
2024/01/22 05:23:14;;;;;;;;;;;17.00;53.60;;;;;;5049941;27;43004;-78
2024/01/22 05:25:39;;;;;;;;;;;17.00;53.50;;;;;;5063511;28;43615;-78
2024/01/22 05:28:05;;;;;;;;;;;17.00;53.80;;;;;;5063471;28;42964;-76
2024/01/22 05:30:31;;;;;;;;;;;17.00;53.90;;;;;;5062176;28;43702;-78
2024/01/22 05:32:56;;;;;;;;;;;17.00;54.50;;;;;;5063570;28;42911;-76
2024/01/22 05:35:22;;;;;;;;;;;17.00;53.90;;;;;;5063440;28;42955;-78
2024/01/22 05:37:49;;;;;;;;;;;17.00;53.50;;;;;;5066662;28;43085;-77
2024/01/22 05:40:14;;;;;;;;;;;17.00;54.00;;;;;;5081035;27;42947;-78
2024/01/22 05:42:40;;;;;;;;;;;17.00;54.10;;;;;;5082883;27;43146;-78
2024/01/22 05:45:05;;;;;;;;;;;17.00;54.30;;;;;;5083415;27;42979;-78
2024/01/22 05:47:31;;;;;;;;;;;17.00;54.30;;;;;;5075314;27;43020;-75
2024/01/22 05:49:56;;;;;;;;;;;17.00;54.30;;;;;;5077712;27;43502;-78
2024/01/22 05:52:22;;;;;;;;;;;17.00;54.30;;;;;;5076524;27;43069;-78
2024/01/22 05:54:48;;;;;;;;;;;17.00;54.80;;;;;;5074469;27;43059;-76
2024/01/22 05:57:13;;;;;;;;;;;17.00;54.00;;;;;;5080553;28;42999;-75
2024/01/22 05:59:39;;;;;;;;;;;17.10;54.60;;;;;;5067066;28;42867;-77
2024/01/22 06:02:05;;;;;;;;;;;17.00;54.60;;;;;;5071813;28;42926;-78
2024/01/22 06:04:31;;;;;;;;;;;17.00;54.70;;;;;;5080958;28;43409;-78
2024/01/22 06:06:57;;;;;;;;;;;17.00;54.60;;;;;;5065876;28;42957;-78
2024/01/22 06:09:22;;;;;;;;;;;17.00;50.10;;;;;;5065079;28;44540;-75
2024/01/22 06:11:48;;;;;;;;;;;16.90;53.30;;;;;;5066937;28;43232;-75
2024/01/22 06:14:13;;;;;;;;;;;16.90;51.50;;;;;;5065603;28;43416;-79
2024/01/22 06:16:39;;;;;;;;;;;16.80;51.40;;;;;;5065753;28;43117;-79
2024/01/22 06:19:04;;;;;;;;;;;16.80;50.70;;;;;;5066627;28;43309;-77
2024/01/22 06:21:30;;;;;;;;;;;16.80;50.60;;;;;;5066363;28;42899;-77
2024/01/22 06:23:57;;;;;;;;;;;16.80;50.20;;;;;;5064573;28;44105;-77
2024/01/22 06:26:23;;;;;;;;;;;16.80;49.60;;;;;;5065976;28;42800;-75
2024/01/22 06:28:49;;;;;;;;;;;16.80;49.40;;;;;;5065690;28;42940;-74
2024/01/22 06:31:14;;;;;;;;;;;16.70;49.20;;;;;;5065587;28;43058;-75
2024/01/22 06:33:40;;;;;;;;;;;16.70;49.00;;;;;;5066205;28;43517;-77
2024/01/22 06:36:06;;;;;;;;;;;16.70;48.70;;;;;;5065649;28;43063;-76
2024/01/22 06:38:32;;;;;;;;;;;16.70;48.40;;;;;;5065375;28;43497;-78
2024/01/22 06:40:57;;;;;;;;;;;16.70;48.40;;;;;;5065670;28;43070;-78
2024/01/22 06:43:23;;;;;;;;;;;16.70;48.40;;;;;;5066132;28;42977;-75
2024/01/22 06:45:48;;;;;;;;;;;16.70;48.40;;;;;;5066646;28;42922;-78
2024/01/22 06:48:14;;;;;;;;;;;16.70;48.30;;;;;;5066195;28;43619;-78
2024/01/22 06:50:40;;;;;;;;;;;16.60;48.40;;;;;;5066470;28;42985;-77
2024/01/22 06:53:05;;;;;;;;;;;16.70;48.30;;;;;;5066234;28;42875;-78
2024/01/22 06:55:31;;;;;;;;;;;16.70;48.10;;;;;;5066571;28;42838;-78
2024/01/22 06:57:56;;;;;;;;;;;16.70;48.10;;;;;;5065198;28;43129;-77
2024/01/22 07:00:22;;;;;;;;;;;16.70;48.00;;;;;;5064867;28;43071;-78
2024/01/22 07:02:49;;;;;;;;;;;16.70;47.80;;;;;;5066117;28;42934;-78
2024/01/22 07:05:15;;;;;;;;;;;16.60;47.60;;;;;;5066496;28;43170;-78
2024/01/22 07:07:41;;;;;;;;;;;16.60;47.40;;;;;;5066415;28;42876;-78
2024/01/22 07:10:10;;;;;;;;;;;16.60;47.30;;;;;;5066011;28;43005;-77
2024/01/22 07:12:36;;;;;;;;;;;16.60;47.20;;;;;;5065488;28;43294;-78
2024/01/22 07:15:02;;;;;;;;;;;16.60;47.20;;;;;;5066356;28;42986;-78
2024/01/22 07:17:30;;;;;;;;;;;16.60;47.20;;;;;;5066347;28;43973;-77
2024/01/22 07:19:56;;;;;;;;;;;16.60;46.70;;;;;;5065887;28;43072;-77
2024/01/22 07:22:22;;;;;;;;;;;16.60;47.10;;;;;;5066357;28;43515;-78
2024/01/22 07:24:47;;;;;;;;;;;16.60;46.90;;;;;;5066566;28;42895;-77
2024/01/22 07:27:13;;;;;;;;;;;16.60;46.60;;;;;;5066161;28;42843;-78
2024/01/22 07:29:38;;;;;;;;;;;16.60;46.90;;;;;;5066217;28;42964;-77
2024/01/22 07:32:04;;;;;;;;;;;16.60;46.50;;;;;;5066077;28;42910;-78
2024/01/22 07:34:29;;;;;;;;;;;16.60;46.70;;;;;;5066566;28;43054;-77
2024/01/22 07:36:55;;;;;;;;;;;16.60;46.50;;;;;;5065704;28;42851;-76
2024/01/22 07:39:20;;;;;;;;;;;16.60;46.50;;;;;;5066020;28;42827;-76
2024/01/22 07:41:46;;;;;;;;;;;16.60;46.30;;;;;;5065964;28;43939;-75
2024/01/22 07:44:11;;;;;;;;;;;16.60;46.20;;;;;;5065999;28;42862;-75
2024/01/22 07:46:38;;;;;;;;;;;16.60;46.30;;;;;;5065919;28;42898;-75
2024/01/22 07:49:03;;;;;;;;;;;16.60;46.10;;;;;;5066262;28;42991;-75
2024/01/22 07:51:29;;;;;;;;;;;16.60;46.20;;;;;;5065549;28;42940;-76
2024/01/22 07:53:54;;;;;;;;;;;16.60;46.00;;;;;;5066243;28;42843;-78
2024/01/22 07:56:20;;;;;;;;;;;16.60;46.10;;;;;;5065463;28;43690;-77
2024/01/22 07:58:46;;;;;;;;;;;16.60;46.30;;;;;;5065889;28;42758;-75
2024/01/22 08:01:11;;;;;;;;;;;16.60;46.20;;;;;;5065671;28;42934;-78
2024/01/22 08:03:38;;;;;;;;;;;16.60;46.00;;;;;;5065459;28;42825;-78
2024/01/22 08:06:03;;;;;;;;;;;16.60;46.40;;;;;;5065415;28;43072;-76
2024/01/22 08:08:29;;;;;;;;;;;16.60;46.60;;;;;;5064835;28;42978;-77
2024/01/22 08:10:55;;;;;;;;;;;16.60;46.60;;;;;;5064694;28;43053;-77
2024/01/22 08:13:21;;;;;;;;;;;16.60;46.50;;;;;;5065144;28;43002;-77
2024/01/22 08:15:46;;;;;;;;;;;16.70;46.90;;;;;;5063479;28;44792;-77
2024/01/22 08:18:13;;;;;;;;;;;16.60;47.30;;;;;;5066472;28;43027;-77
2024/01/22 08:20:39;;;;;;;;;;;16.70;47.20;;;;;;5072471;28;43401;-77
2024/01/22 08:23:05;;;;;;;;;;;16.70;47.00;;;;;;5065550;28;43122;-77
2024/01/22 08:25:30;;;;;;;;;;;16.70;46.90;;;;;;5065578;28;43470;-78
2024/01/22 08:27:56;;;;;;;;;;;16.70;46.90;;;;;;5065675;28;42940;-78
2024/01/22 08:30:21;;;;;;;;;;;16.70;47.00;;;;;;5065392;28;42755;-77
2024/01/22 08:32:48;;;;;;;;;;;16.80;47.30;;;;;;5063191;28;43174;-78
2024/01/22 08:35:14;;;;;;;;;;;16.80;47.30;;;;;;5064673;28;43055;-78
2024/01/22 08:37:40;;;;;;;;;;;16.70;47.20;;;;;;5064569;28;43009;-78
2024/01/22 08:40:06;;;;;;;;;;;16.80;47.20;;;;;;5064758;28;43389;-78
2024/01/22 08:42:34;;;;;;;;;;;16.70;47.10;;;;;;5065854;28;42716;-78
2024/01/22 08:45:00;;;;;;;;;;;16.80;47.20;;;;;;5064224;28;43365;-78
2024/01/22 08:47:25;;;;;;;;;;;16.80;47.30;;;;;;5064448;28;43073;-77
2024/01/22 08:49:51;;;;;;;;;;;16.80;47.20;;;;;;5065374;28;43941;-78
2024/01/22 08:52:16;;;;;;;;;;;16.70;47.20;;;;;;5065432;28;42870;-78
2024/01/22 08:54:42;;;;;;;;;;;16.80;47.20;;;;;;5063024;28;44451;-78
2024/01/22 08:57:07;;;;;;;;;;;16.80;47.20;;;;;;5064731;28;42848;-78
2024/01/22 08:59:33;;;;;;;;;;;16.80;47.20;;;;;;5064735;28;43876;-78
2024/01/22 09:01:59;;;;;;;;;;;16.80;47.10;;;;;;5064776;28;42926;-78
2024/01/22 09:04:24;;;;;;;;;;;16.80;47.00;;;;;;5065258;28;42852;-78
2024/01/22 09:06:51;;;;;;;;;;;16.80;47.10;;;;;;5065128;28;42993;-77
2024/01/22 09:09:16;;;;;;;;;;;16.80;47.00;;;;;;5064403;28;42780;-77
2024/01/22 09:11:42;;;;;;;;;;;16.80;47.00;;;;;;5064956;28;42969;-79
2024/01/22 09:14:07;;;;;;;;;;;16.80;47.00;;;;;;5064839;28;42910;-77
2024/01/22 09:16:33;;;;;;;;;;;16.80;46.90;;;;;;5064959;28;42875;-78
2024/01/22 09:18:58;;;;;;;;;;;16.80;47.00;;;;;;5064717;28;43981;-77
2024/01/22 09:21:24;;;;;;;;;;;16.80;46.90;;;;;;5065799;28;42933;-78
2024/01/22 09:23:50;;;;;;;;;;;16.80;46.90;;;;;;5068161;28;43731;-77
2024/01/22 09:26:15;;;;;;;;;;;16.80;46.90;;;;;;5068287;28;43025;-75
2024/01/22 09:28:41;;;;;;;;;;;16.70;46.30;;;;;;5068305;28;42847;-77
2024/01/22 09:31:07;;;;;;;;;;;16.80;46.90;;;;;;5068549;28;42894;-77
2024/01/22 09:33:33;;;;;;;;;;;16.80;46.80;;;;;;5068209;28;43747;-78
2024/01/22 09:36:01;;;;;;;;;;;17.00;46.80;;;;;;5068423;28;42920;-77
2024/01/22 09:38:27;;;;;;;;;;;16.80;46.70;;;;;;5068176;28;43003;-76
2024/01/22 09:40:52;;;;;;;;;;;16.80;46.60;;;;;;5067218;28;43000;-76
2024/01/22 09:43:18;;;;;;;;;;;16.80;46.60;;;;;;5067354;28;42867;-78
2024/01/22 09:45:46;;;;;;;;;;;16.80;46.60;;;;;;5067767;28;42832;-76
2024/01/22 09:48:11;;;;;;;;;;;16.80;46.60;;;;;;5067698;28;43080;-78
2024/01/22 09:50:37;;;;;;;;;;;16.80;46.50;;;;;;5068310;28;42824;-77
2024/01/22 09:53:08;;;;;;;;;;;16.80;46.40;;;;;;5068173;28;42850;-77
2024/01/22 09:55:34;;;;;;;;;;;16.80;46.40;;;;;;5068008;28;43209;-77
2024/01/22 09:58:01;;;;;;;;;;;16.70;46.30;;;;;;5066757;28;42934;-77
2024/01/22 10:00:27;;;;;;;;;;;16.80;46.30;;;;;;5067349;28;42819;-76
2024/01/22 10:02:53;;;;;;;;;;;16.80;46.30;;;;;;5067001;28;42911;-77
2024/01/22 10:05:19;;;;;;;;;;;16.80;46.20;;;;;;5067170;28;43005;-76
2024/01/22 10:07:44;;;;;;;;;;;16.80;46.20;;;;;;5065438;28;45380;-77
2024/01/22 10:10:10;;;;;;;;;;;16.80;46.30;;;;;;5066582;28;42971;-78
2024/01/22 10:12:54;;;;;;;;;;;16.80;46.10;;;;;;5066148;28;44247;-76
2024/01/22 10:15:20;;;;;;;;;;;16.80;46.10;;;;;;5067345;28;43076;-78
2024/01/22 10:17:45;;;;;;;;;;;16.80;46.10;;;;;;5067168;28;42820;-77
2024/01/22 10:20:11;;;;;;;;;;;16.80;46.00;;;;;;5066617;28;43052;-77
2024/01/22 10:22:37;;;;;;;;;;;16.80;46.10;;;;;;5066569;28;43672;-77
2024/01/22 10:25:02;;;;;;;;;;;16.80;46.10;;;;;;5066906;28;43018;-77
2024/01/22 10:27:28;;;;;;;;;;;16.80;45.90;;;;;;5066236;28;43447;-76
2024/01/22 10:30:12;;;;;;;;;;;16.80;45.90;;;;;;5067058;28;42920;-76
2024/01/22 10:32:38;;;;;;;;;;;16.80;45.80;;;;;;5065531;28;43741;-76
2024/01/22 10:35:04;;;;;;;;;;;16.80;45.80;;;;;;5067429;28;43046;-76
2024/01/22 10:37:29;;;;;;;;;;;16.80;45.80;;;;;;5073540;28;42690;-75
2024/01/22 10:40:03;;;;;;;;;;;16.80;45.70;;;;;;5068307;28;42875;-78
2024/01/22 10:42:29;;;;;;;;;;;16.80;45.40;;;;;;5066852;28;43590;-78
2024/01/22 10:44:56;;;;;;;;;;;16.70;45.80;;;;;;5066340;28;42967;-77
2024/01/22 10:47:21;;;;;;;;;;;16.70;45.70;;;;;;5066381;28;42933;-77
2024/01/22 10:49:47;;;;;;;;;;;16.80;45.70;;;;;;5066982;28;42827;-77
2024/01/22 10:52:13;;;;;;;;;;;16.70;45.70;;;;;;5066712;28;43504;-78
2024/01/22 10:54:39;;;;;;;;;;;16.70;45.60;;;;;;5067306;28;42842;-78
2024/01/22 10:57:11;;;;;;;;;;;16.70;45.40;;;;;;5067255;28;43608;-77
2024/01/22 10:59:38;;;;;;;;;;;16.70;45.40;;;;;;5066756;28;42764;-76
2024/01/22 11:02:05;;;;;;;;;;;16.80;45.60;;;;;;5064735;28;42970;-78
2024/01/22 11:04:37;;;;;;;;;;;16.70;45.50;;;;;;5066233;28;43004;-77
2024/01/22 11:07:05;;;;;;;;;;;16.70;45.50;;;;;;5066302;28;42942;-75
2024/01/22 11:09:33;;;;;;;;;;;16.80;45.60;;;;;;5066560;28;42996;-77
2024/01/22 11:12:04;;;;;;;;;;;16.70;45.40;;;;;;5066565;28;42825;-78
2024/01/22 11:14:30;;;;;;;;;;;16.70;45.30;;;;;;5066114;28;43050;-76
2024/01/22 11:16:56;;;;;;;;;;;16.70;45.30;;;;;;5066114;28;44486;-76
2024/01/22 11:19:24;;;;;;;;;;;16.70;45.10;;;;;;5066516;28;42942;-78
2024/01/22 11:21:52;;;;;;;;;;;16.70;45.30;;;;;;5066431;28;43500;-77
2024/01/22 11:24:19;;;;;;;;;;;16.70;45.30;;;;;;5065999;28;43055;-76
2024/01/22 11:26:51;;;;;;;;;;;16.70;45.30;;;;;;5065503;28;43165;-76
2024/01/22 11:29:21;;;;;;;;;;;16.70;45.20;;;;;;5065816;28;42957;-75
2024/01/22 11:31:48;;;;;;;;;;;16.70;45.20;;;;;;5066000;28;43001;-75
2024/01/22 11:34:14;;;;;;;;;;;16.70;45.20;;;;;;5064504;28;43065;-78
2024/01/22 11:36:49;;;;;;;;;;;16.70;45.60;;;;;;5065682;28;43007;-76
2024/01/22 11:39:33;;;;;;;;;;;16.70;45.10;;;;;;5066151;28;42982;-77
2024/01/22 11:41:59;;;;;;;;;;;16.80;45.10;;;;;;5065361;28;44664;-77
2024/01/22 11:44:26;;;;;;;;;;;16.70;45.00;;;;;;5065974;28;42795;-78
2024/01/22 11:47:04;;;;;;;;;;;16.80;45.10;;;;;;5066012;28;43055;-76
2024/01/22 11:49:30;;;;;;;;;;;16.70;44.90;;;;;;5066039;28;42847;-75
2024/01/22 11:51:55;;;;;;;;;;;16.70;44.60;;;;;;5065461;28;43401;-75
2024/01/22 11:54:21;;;;;;;;;;;16.70;44.40;;;;;;5066018;28;43041;-75
2024/01/22 11:56:46;;;;;;;;;;;16.70;43.10;;;;;;5065597;28;42838;-76
2024/01/22 11:59:12;;;;;;;;;;;16.70;44.60;;;;;;5066177;28;42967;-77
2024/01/22 12:01:37;;;;;;;;;;;16.70;43.90;;;;;;5065595;28;43452;-75
2024/01/22 12:04:09;;;;;;;;;;;16.60;43.10;;;;;;5065574;28;42964;-77
2024/01/22 12:06:50;;;;;;;;;;;16.70;43.90;;;;;;5065221;28;43772;-77
2024/01/22 12:09:16;;;;;;;;;;;16.70;44.60;;;;;;5065609;28;43318;-77
2024/01/22 12:11:49;;;;;;;;;;;16.70;44.50;;;;;;5065524;28;43369;-77
2024/01/22 12:14:15;;;;;;;;;;;16.70;43.60;;;;;;5065722;28;42902;-78
2024/01/22 12:16:40;;;;;;;;;;;16.70;44.50;;;;;;5064337;28;42976;-78
2024/01/22 12:19:12;;;;;;;;;;;16.70;44.50;;;;;;5065465;28;42973;-76
2024/01/22 12:21:40;;;;;;;;;;;16.70;44.30;;;;;;5065001;28;43711;-78
2024/01/22 12:24:14;;;;;;;;;;;16.70;44.10;;;;;;5065358;28;42919;-77
2024/01/22 12:26:40;;;;;;;;;;;16.80;44.20;;;;;;5065329;28;44301;-78
2024/01/22 12:29:06;;;;;;;;;;;16.70;39.70;;;;;;5065541;28;42859;-77
2024/01/22 12:31:32;;;;;;;;;;;16.60;37.10;;;;;;5056568;28;43762;-78
2024/01/22 12:34:12;;;;;;;;;;;16.40;37.10;;;;;;5059589;28;43025;-78
2024/01/22 12:36:38;;;;;;;;;;;16.30;38.80;;;;;;5063501;28;43075;-76
2024/01/22 12:39:05;;;;;;;;;;;16.30;40.50;;;;;;5064197;28;42929;-78
2024/01/22 12:41:31;;;;;;;;;;;16.40;41.40;;;;;;5097284;27;43666;-78
2024/01/22 12:43:57;;;;;;;;;;;16.40;40.90;;;;;;5064644;28;42910;-78
2024/01/22 12:46:22;;;;;;;;;;;16.40;42.40;;;;;;5064070;28;43370;-79
2024/01/22 12:48:49;;;;;;;;;;;16.50;42.90;;;;;;5064499;28;43042;-80
2024/01/22 12:51:16;;;;;;;;;;;16.50;43.20;;;;;;5055680;28;43457;-79
2024/01/22 12:53:42;;;;;;;;;;;16.60;43.30;;;;;;5068608;28;43435;-80
2024/01/22 12:56:08;;;;;;;;;;;16.60;43.30;;;;;;5066211;28;43526;-79
2024/01/22 12:58:34;;;;;;;;;;;16.70;43.50;;;;;;5065437;28;43170;-79
2024/01/22 13:00:59;;;;;;;;;;;16.70;43.70;;;;;;5071775;28;43034;-78
2024/01/22 13:03:25;;;;;;;;;;;16.70;44.40;;;;;;5076486;27;42758;-80
2024/01/22 13:05:50;;;;;;;;;;;16.80;44.10;;;;;;5066421;28;43015;-79
2024/01/22 13:08:17;;;;;;;;;;;16.80;44.10;;;;;;5073544;28;42917;-80
2024/01/22 13:10:43;;;;;;;;;;;16.80;44.50;;;;;;5078703;28;43874;-80
2024/01/22 13:13:08;;;;;;;;;;;16.80;44.60;;;;;;5087260;27;42991;-76
2024/01/22 13:15:34;;;;;;;;;;;16.80;44.70;;;;;;5087627;27;43956;-78
2024/01/22 13:18:00;;;;;;;;;;;16.80;44.80;;;;;;5087605;28;43035;-78
2024/01/22 13:20:26;;;;;;;;;;;16.80;44.90;;;;;;5086909;27;42869;-80
2024/01/22 13:22:51;;;;;;;;;;;16.90;45.10;;;;;;5082514;28;43120;-81
2024/01/22 13:25:20;;;;;;;;;;;16.90;45.10;;;;;;5083894;28;44494;-80
2024/01/22 13:27:46;;;;;;;;;;;16.90;45.10;;;;;;5086610;27;43044;-77
2024/01/22 13:30:12;;;;;;;;;;;16.90;45.10;;;;;;5086301;27;43363;-81
2024/01/22 13:32:38;;;;;;;;;;;16.90;45.20;;;;;;5086223;27;42988;-79
2024/01/22 13:35:04;;;;;;;;;;;17.00;45.30;;;;;;5085709;28;42945;-76
2024/01/22 13:37:30;;;;;;;;;;;17.00;45.40;;;;;;5082661;28;43054;-81
2024/01/22 13:39:56;;;;;;;;;;;17.00;45.50;;;;;;5086477;27;43744;-81
2024/01/22 13:42:21;;;;;;;;;;;17.00;45.50;;;;;;5086974;27;42933;-79
2024/01/22 13:44:50;;;;;;;;;;;17.00;45.60;;;;;;5084290;27;43360;-80
2024/01/22 13:47:17;;;;;;;;;;;17.00;45.70;;;;;;5086833;27;42932;-79
2024/01/22 13:49:42;;;;;;;;;;;17.00;45.70;;;;;;5086496;28;42955;-80
2024/01/22 13:52:08;;;;;;;;;;;17.00;45.80;;;;;;5086513;27;43011;-80
2024/01/22 13:54:33;;;;;;;;;;;17.00;45.80;;;;;;5085880;27;43206;-82
2024/01/22 13:56:59;;;;;;;;;;;17.10;45.90;;;;;;5087357;27;42929;-81
2024/01/22 13:59:24;;;;;;;;;;;17.10;46.00;;;;;;5085901;27;43390;-80
2024/01/22 14:01:51;;;;;;;;;;;17.10;46.00;;;;;;5088157;27;43052;-75
2024/01/22 14:04:16;;;;;;;;;;;17.20;46.10;;;;;;5075454;28;43624;-77
2024/01/22 14:06:43;;;;;;;;;;;17.10;46.10;;;;;;5066439;28;42878;-82
2024/01/22 14:09:10;;;;;;;;;;;17.10;46.10;;;;;;5066048;28;44303;-76
2024/01/22 14:11:36;;;;;;;;;;;17.10;46.20;;;;;;5066266;28;42961;-76